createdAt,value
2022-08-25T00:00:03.715Z,39.95
2022-08-25T00:01:03.711Z,39.83
2022-08-25T00:02:03.693Z,39.90
2022-08-25T00:03:03.740Z,39.94
2022-08-25T00:04:03.680Z,40.18
2022-08-25T00:05:03.722Z,40.24
2022-08-25T00:06:03.671Z,44.38
2022-08-25T00:07:03.654Z,40.00
2022-08-25T00:08:03.816Z,40.75
2022-08-25T00:09:03.633Z,40.66
2022-08-25T00:10:03.620Z,40.38
2022-08-25T00:11:03.792Z,40.26
2022-08-25T00:12:03.611Z,43.81
2022-08-25T00:13:03.634Z,40.42
2022-08-25T00:14:03.587Z,40.12
2022-08-25T00:15:03.572Z,40.25
2022-08-25T00:16:03.655Z,40.12
2022-08-25T00:17:03.555Z,39.96
2022-08-25T00:18:03.682Z,39.85
2022-08-25T00:19:04.542Z,41.18
2022-08-25T00:20:03.529Z,44.69
2022-08-25T00:21:03.535Z,48.70
2022-08-25T00:22:03.502Z,45.05
2022-08-25T00:23:03.501Z,41.24
2022-08-25T00:24:03.487Z,43.42
2022-08-25T00:25:03.474Z,40.29
2022-08-25T00:26:03.483Z,46.15
2022-08-25T00:27:03.459Z,40.46
2022-08-25T00:28:08.234Z,39.95
2022-08-25T00:29:04.438Z,40.10
2022-08-25T00:30:03.430Z,40.25
2022-08-25T00:31:03.484Z,40.13
2022-08-25T00:32:03.568Z,40.59
2022-08-25T00:33:03.404Z,40.21
2022-08-25T00:34:03.389Z,40.68
2022-08-25T00:35:03.383Z,40.22
2022-08-25T00:36:03.401Z,40.07
2022-08-25T00:37:03.363Z,40.87
2022-08-25T00:38:03.442Z,43.98
2022-08-25T00:39:03.348Z,40.35
2022-08-25T00:40:03.390Z,40.43
2022-08-25T00:41:03.377Z,40.25
2022-08-25T00:42:03.310Z,40.15
2022-08-25T00:43:03.479Z,40.12
2022-08-25T00:44:03.293Z,40.87
2022-08-25T00:45:03.298Z,41.41
2022-08-25T00:46:03.333Z,43.19
2022-08-25T00:47:03.270Z,40.62
2022-08-25T00:48:03.418Z,40.34
2022-08-25T00:49:03.248Z,40.35
2022-08-25T00:50:03.234Z,40.36
2022-08-25T00:51:03.244Z,40.40
2022-08-25T00:52:03.217Z,41.82
2022-08-25T00:53:03.209Z,40.29
2022-08-25T00:54:03.197Z,40.81
2022-08-25T00:55:07.876Z,40.56
2022-08-25T00:56:04.192Z,40.30
2022-08-25T00:57:03.167Z,40.40
2022-08-25T00:58:03.259Z,44.05
2022-08-25T00:59:03.148Z,40.69
2022-08-25T01:00:03.137Z,40.66
2022-08-25T01:01:03.198Z,40.74
2022-08-25T01:02:03.116Z,41.00
2022-08-25T01:03:03.155Z,42.85
2022-08-25T01:04:03.099Z,41.95
2022-08-25T01:05:03.089Z,42.12
2022-08-25T01:06:03.082Z,42.00
2022-08-25T01:07:03.063Z,42.78
2022-08-25T01:08:03.173Z,43.41
2022-08-25T01:09:03.053Z,43.02
2022-08-25T01:10:03.037Z,43.21
2022-08-25T01:11:03.061Z,43.26
2022-08-25T01:12:03.019Z,47.78
2022-08-25T01:13:03.010Z,49.80
2022-08-25T01:14:03.012Z,43.38
2022-08-25T01:15:02.991Z,42.72
2022-08-25T01:16:03.061Z,49.27
2022-08-25T01:17:03.095Z,40.44
2022-08-25T01:18:03.053Z,40.45
2022-08-25T01:19:02.973Z,40.54
2022-08-25T01:20:02.994Z,40.62
2022-08-25T01:21:02.944Z,40.63
2022-08-25T01:22:02.916Z,40.78
2022-08-25T01:23:02.911Z,40.62
2022-08-25T01:24:02.894Z,40.67
2022-08-25T01:25:02.899Z,40.79
2022-08-25T01:26:02.892Z,40.81
2022-08-25T01:27:02.884Z,40.89
2022-08-25T01:28:03.111Z,41.51
2022-08-25T01:29:02.919Z,40.91
2022-08-25T01:30:02.882Z,41.03
2022-08-25T01:31:02.891Z,40.73
2022-08-25T01:32:02.818Z,40.74
2022-08-25T01:33:02.855Z,40.80
2022-08-25T01:34:02.815Z,40.78
2022-08-25T01:35:02.877Z,40.59
2022-08-25T01:36:02.804Z,42.19
2022-08-25T01:37:02.775Z,40.69
2022-08-25T01:38:02.851Z,40.96
2022-08-25T01:39:02.755Z,40.62
2022-08-25T01:40:02.797Z,40.64
2022-08-25T01:41:02.751Z,40.62
2022-08-25T01:42:02.727Z,43.84
2022-08-25T01:43:02.716Z,40.80
2022-08-25T01:44:02.700Z,40.61
2022-08-25T01:45:02.692Z,40.70
2022-08-25T01:46:02.777Z,40.71
2022-08-25T01:47:02.681Z,40.53
2022-08-25T01:48:02.711Z,40.64
2022-08-25T01:49:06.595Z,47.16
2022-08-25T01:50:02.660Z,40.61
2022-08-25T01:51:02.655Z,40.63
2022-08-25T01:52:02.628Z,40.91
2022-08-25T01:53:02.621Z,41.05
2022-08-25T01:54:02.616Z,40.77
2022-08-25T01:55:02.604Z,40.70
2022-08-25T01:56:03.777Z,40.59
2022-08-25T01:57:02.581Z,40.55
2022-08-25T01:58:02.676Z,40.45
2022-08-25T01:59:02.566Z,40.72
2022-08-25T02:00:02.549Z,40.47
2022-08-25T02:01:02.592Z,40.50
2022-08-25T02:02:02.531Z,40.67
2022-08-25T02:03:02.611Z,41.58
2022-08-25T02:04:02.511Z,45.69
2022-08-25T02:05:02.497Z,40.68
2022-08-25T02:06:04.193Z,40.92
2022-08-25T02:07:02.484Z,40.76
2022-08-25T02:08:02.481Z,40.66
2022-08-25T02:09:02.465Z,43.94
2022-08-25T02:10:03.505Z,41.66
2022-08-25T02:11:02.458Z,41.26
2022-08-25T02:12:02.435Z,41.57
2022-08-25T02:13:02.427Z,41.90
2022-08-25T02:14:02.663Z,48.17
2022-08-25T02:15:02.402Z,42.44
2022-08-25T02:16:02.444Z,42.32
2022-08-25T02:17:02.440Z,43.06
2022-08-25T02:18:02.370Z,43.33
2022-08-25T02:19:02.598Z,43.66
2022-08-25T02:20:02.357Z,43.84
2022-08-25T02:21:02.483Z,43.98
2022-08-25T02:22:02.336Z,47.16
2022-08-25T02:23:02.331Z,40.65
2022-08-25T02:24:02.315Z,40.73
2022-08-25T02:25:02.310Z,42.81
2022-08-25T02:26:02.315Z,45.80
2022-08-25T02:27:02.293Z,48.95
2022-08-25T02:28:02.352Z,42.09
2022-08-25T02:29:02.271Z,49.62
2022-08-25T02:30:02.263Z,41.24
2022-08-25T02:31:02.282Z,41.18
2022-08-25T02:32:02.242Z,51.23
2022-08-25T02:33:02.238Z,42.57
2022-08-25T02:34:02.223Z,47.23
2022-08-25T02:35:02.215Z,47.00
2022-08-25T02:36:02.212Z,40.90
2022-08-25T02:37:02.201Z,41.38
2022-08-25T02:38:02.185Z,41.01
2022-08-25T02:39:02.172Z,41.58
2022-08-25T02:40:02.223Z,40.56
2022-08-25T02:41:02.174Z,42.66
2022-08-25T02:42:02.149Z,41.27
2022-08-25T02:43:02.140Z,41.00
2022-08-25T02:44:02.130Z,40.81
2022-08-25T02:45:02.111Z,46.95
2022-08-25T02:46:02.188Z,40.90
2022-08-25T02:47:02.110Z,45.99
2022-08-25T02:48:02.131Z,41.46
2022-08-25T02:49:02.076Z,50.50
2022-08-25T02:50:02.069Z,41.00
2022-08-25T02:51:02.055Z,40.86
2022-08-25T02:52:02.071Z,41.26
2022-08-25T02:53:02.037Z,44.74
2022-08-25T02:54:02.038Z,41.16
2022-08-25T02:55:02.018Z,45.25
2022-08-25T02:56:02.008Z,52.10
2022-08-25T02:57:02.007Z,41.51
2022-08-25T02:58:02.006Z,44.55
2022-08-25T02:59:01.976Z,48.36
2022-08-25T03:00:01.977Z,48.44
2022-08-25T03:01:01.987Z,41.26
2022-08-25T03:02:01.965Z,40.94
2022-08-25T03:03:01.938Z,40.86
2022-08-25T03:04:01.963Z,41.16
2022-08-25T03:05:01.986Z,45.85
2022-08-25T03:06:01.923Z,40.81
2022-08-25T03:07:01.906Z,47.26
2022-08-25T03:08:01.938Z,49.53
2022-08-25T03:09:01.879Z,44.26
2022-08-25T03:10:01.865Z,40.64
2022-08-25T03:11:02.126Z,41.29
2022-08-25T03:12:01.847Z,46.20
2022-08-25T03:13:01.838Z,48.25
2022-08-25T03:14:01.832Z,46.03
2022-08-25T03:15:02.088Z,41.98
2022-08-25T03:16:02.996Z,47.45
2022-08-25T03:17:01.814Z,46.25
2022-08-25T03:18:01.818Z,48.31
2022-08-25T03:19:01.775Z,52.58
2022-08-25T03:20:01.768Z,45.35
2022-08-25T03:21:01.753Z,42.02
2022-08-25T03:22:01.772Z,55.79
2022-08-25T03:23:01.740Z,45.77
2022-08-25T03:24:01.736Z,51.03
2022-08-25T03:25:01.720Z,48.84
2022-08-25T03:26:01.864Z,49.66
2022-08-25T03:27:01.715Z,41.52
2022-08-25T03:28:01.733Z,42.09
2022-08-25T03:29:01.675Z,45.70
2022-08-25T03:30:01.681Z,47.58
2022-08-25T03:31:01.682Z,53.50
2022-08-25T03:32:01.723Z,42.79
2022-08-25T03:33:01.643Z,45.20
2022-08-25T03:34:01.634Z,47.57
2022-08-25T03:35:01.624Z,50.70
2022-08-25T03:36:01.626Z,54.29
2022-08-25T03:37:01.606Z,49.52
2022-08-25T03:38:01.646Z,53.82
2022-08-25T03:39:01.585Z,43.70
2022-08-25T03:40:01.597Z,42.64
2022-08-25T03:41:01.576Z,54.36
2022-08-25T03:42:01.556Z,42.72
2022-08-25T03:43:01.551Z,49.52
2022-08-25T03:44:01.541Z,51.92
2022-08-25T03:45:01.663Z,47.78
2022-08-25T03:46:01.586Z,52.84
2022-08-25T03:47:01.508Z,48.65
2022-08-25T03:48:01.518Z,46.30
2022-08-25T03:49:01.489Z,46.32
2022-08-25T03:50:01.477Z,47.43
2022-08-25T03:51:01.471Z,53.98
2022-08-25T03:52:01.479Z,55.25
2022-08-25T03:53:01.452Z,45.78
2022-08-25T03:54:01.544Z,54.39
2022-08-25T03:55:01.429Z,47.72
2022-08-25T03:56:01.423Z,48.24
2022-08-25T03:57:01.628Z,41.77
2022-08-25T03:58:01.444Z,50.96
2022-08-25T03:59:01.391Z,47.00
2022-08-25T04:00:01.484Z,53.31
2022-08-25T04:01:01.414Z,53.48
2022-08-25T04:02:01.576Z,48.89
2022-08-25T04:03:01.467Z,48.74
2022-08-25T04:04:01.356Z,52.92
2022-08-25T04:05:01.417Z,51.81
2022-08-25T04:06:01.530Z,56.06
2022-08-25T04:07:01.335Z,53.47
2022-08-25T04:08:01.634Z,44.38
2022-08-25T04:09:01.436Z,49.00
2022-08-25T04:10:01.297Z,48.38
2022-08-25T04:11:01.282Z,52.50
2022-08-25T04:12:01.530Z,52.09
2022-08-25T04:13:01.257Z,53.72
2022-08-25T04:14:01.251Z,46.07
2022-08-25T04:15:01.270Z,54.99
2022-08-25T04:16:01.236Z,51.23
2022-08-25T04:17:01.285Z,54.74
2022-08-25T04:18:01.246Z,54.72
2022-08-25T04:19:01.197Z,53.78
2022-08-25T04:20:01.192Z,50.63
2022-08-25T04:21:01.180Z,48.69
2022-08-25T04:22:01.186Z,55.05
2022-08-25T04:23:01.168Z,41.91
2022-08-25T04:24:01.230Z,47.95
2022-08-25T04:25:01.149Z,41.83
2022-08-25T04:26:01.138Z,51.58
2022-08-25T04:27:01.384Z,49.53
2022-08-25T04:28:01.185Z,48.13
2022-08-25T04:29:01.118Z,52.21
2022-08-25T04:30:01.331Z,52.95
2022-08-25T04:31:01.149Z,54.21
2022-08-25T04:32:01.192Z,52.15
2022-08-25T04:33:01.072Z,49.73
2022-08-25T04:34:01.061Z,49.10
2022-08-25T04:35:01.047Z,45.84
2022-08-25T04:36:01.045Z,53.30
2022-08-25T04:37:01.042Z,49.61
2022-08-25T04:38:01.021Z,48.48
2022-08-25T04:39:01.070Z,47.12
2022-08-25T04:40:01.036Z,54.51
2022-08-25T04:41:00.993Z,56.20
2022-08-25T04:42:01.196Z,54.30
2022-08-25T04:43:00.963Z,55.29
2022-08-25T04:44:00.962Z,47.30
2022-08-25T04:45:00.947Z,53.50
2022-08-25T04:46:00.987Z,53.20
2022-08-25T04:47:00.946Z,56.75
2022-08-25T04:48:00.921Z,52.53
2022-08-25T04:49:00.908Z,53.24
2022-08-25T04:50:00.906Z,55.40
2022-08-25T04:51:00.889Z,49.46
2022-08-25T04:52:00.899Z,45.29
2022-08-25T04:53:00.870Z,50.37
2022-08-25T04:54:00.859Z,57.63
2022-08-25T04:55:00.851Z,54.80
2022-08-25T04:56:03.796Z,56.83
2022-08-25T04:57:00.849Z,53.22
2022-08-25T04:58:00.824Z,46.87
2022-08-25T04:59:00.802Z,47.67
2022-08-25T05:00:00.799Z,54.72
2022-08-25T05:01:00.827Z,55.93
2022-08-25T05:02:00.798Z,56.41
2022-08-25T05:03:00.771Z,50.90
2022-08-25T05:04:00.795Z,55.34
2022-08-25T05:05:00.786Z,46.52
2022-08-25T05:06:00.766Z,57.08
2022-08-25T05:07:00.742Z,49.71
2022-08-25T05:08:00.728Z,50.11
2022-08-25T05:09:00.709Z,54.38
2022-08-25T05:10:00.709Z,51.04
2022-08-25T05:11:00.697Z,48.40
2022-08-25T05:12:00.705Z,51.28
2022-08-25T05:13:00.678Z,42.33
2022-08-25T05:14:00.676Z,56.20
2022-08-25T05:15:00.656Z,55.32
2022-08-25T05:16:00.729Z,56.63
2022-08-25T05:17:00.654Z,57.06
2022-08-25T05:18:00.666Z,56.44
2022-08-25T05:19:00.616Z,49.36
2022-08-25T05:20:00.615Z,54.91
2022-08-25T05:21:00.596Z,52.90
2022-08-25T05:22:00.607Z,56.98
2022-08-25T05:23:00.583Z,54.65
2022-08-25T05:24:00.584Z,56.00
2022-08-25T05:25:00.636Z,53.07
2022-08-25T05:26:00.556Z,54.49
2022-08-25T05:27:00.553Z,49.11
2022-08-25T05:28:00.582Z,43.85
2022-08-25T05:29:00.518Z,53.80
2022-08-25T05:30:00.516Z,50.30
2022-08-25T05:31:00.564Z,57.35
2022-08-25T05:32:00.543Z,45.13
2022-08-25T05:33:00.479Z,54.90
2022-08-25T05:34:00.489Z,54.00
2022-08-25T05:35:00.462Z,48.07
2022-08-25T05:36:00.450Z,45.34
2022-08-25T05:37:00.507Z,58.22
2022-08-25T05:38:00.447Z,52.39
2022-08-25T05:39:00.417Z,50.39
2022-08-25T05:40:00.464Z,54.79
2022-08-25T05:41:00.404Z,54.52
2022-08-25T05:42:00.395Z,50.76
2022-08-25T05:43:00.397Z,56.28
2022-08-25T05:44:00.378Z,54.97
2022-08-25T05:45:00.370Z,51.45
2022-08-25T05:46:00.411Z,55.23
2022-08-25T05:47:00.363Z,53.45
2022-08-25T05:48:00.369Z,48.59
2022-08-25T05:49:00.460Z,52.16
2022-08-25T05:50:00.322Z,54.07
2022-08-25T05:51:00.297Z,48.60
2022-08-25T05:52:00.297Z,46.34
2022-08-25T05:53:00.304Z,54.56
2022-08-25T05:54:00.293Z,52.88
2022-08-25T05:55:00.400Z,53.18
2022-08-25T05:56:00.255Z,51.94
2022-08-25T05:57:00.285Z,53.51
2022-08-25T05:58:00.281Z,49.18
2022-08-25T05:59:00.233Z,47.43
2022-08-25T06:00:00.233Z,58.00
2022-08-25T06:01:00.338Z,51.85
2022-08-25T06:02:00.209Z,47.47
2022-08-25T06:03:00.181Z,53.61
2022-08-25T06:04:00.225Z,54.20
2022-08-25T06:05:00.163Z,43.59
2022-08-25T06:06:00.159Z,52.70
2022-08-25T06:07:00.158Z,48.89
2022-08-25T06:08:00.260Z,53.98
2022-08-25T06:09:00.125Z,54.19
2022-08-25T06:10:00.137Z,52.44
2022-08-25T06:11:00.116Z,47.41
2022-08-25T06:12:00.109Z,54.68
2022-08-25T06:13:00.093Z,49.44
2022-08-25T06:14:00.084Z,53.61
2022-08-25T06:15:00.065Z,54.83
2022-08-25T06:16:00.100Z,53.41
2022-08-25T06:17:00.080Z,47.76
2022-08-25T06:18:01.660Z,55.35
2022-08-25T06:19:00.039Z,49.33
2022-08-25T06:20:00.021Z,46.23
2022-08-25T06:21:00.006Z,53.48
2022-08-25T06:22:00.021Z,53.70
2022-08-25T06:22:59.987Z,55.26
2022-08-25T06:23:59.972Z,47.69
2022-08-25T06:24:59.965Z,54.74
2022-08-25T06:25:59.960Z,52.67
2022-08-25T06:26:59.955Z,52.72
2022-08-25T06:27:59.958Z,53.22
2022-08-25T06:28:59.927Z,46.88
2022-08-25T06:30:04.745Z,53.77
2022-08-25T06:31:00.920Z,52.10
2022-08-25T06:32:00.105Z,53.33
2022-08-25T06:32:59.887Z,53.60
2022-08-25T06:33:59.880Z,50.27
2022-08-25T06:34:59.869Z,50.00
2022-08-25T06:35:59.859Z,51.82
2022-08-25T06:36:59.862Z,50.28
2022-08-25T06:37:59.893Z,51.31
2022-08-25T06:38:59.824Z,55.14
2022-08-25T06:39:59.879Z,55.53
2022-08-25T06:40:59.811Z,55.81
2022-08-25T06:41:59.830Z,49.84
2022-08-25T06:42:59.791Z,47.47
2022-08-25T06:44:05.044Z,50.95
2022-08-25T06:45:00.770Z,52.65
2022-08-25T06:45:59.767Z,51.53
2022-08-25T06:46:59.821Z,52.10
2022-08-25T06:47:59.787Z,56.18
2022-08-25T06:48:59.748Z,54.66
2022-08-25T06:49:59.740Z,56.04
2022-08-25T06:50:59.717Z,63.76
2022-08-25T06:51:59.722Z,61.05
2022-08-25T06:52:59.723Z,62.51
2022-08-25T06:53:59.707Z,60.53
2022-08-25T06:54:59.682Z,55.22
2022-08-25T06:56:03.352Z,52.65
2022-08-25T06:57:00.699Z,58.07
2022-08-25T06:57:59.674Z,57.21
2022-08-25T06:58:59.642Z,56.32
2022-08-25T06:59:59.706Z,58.42
2022-08-25T07:00:59.675Z,58.05
2022-08-25T07:01:59.643Z,60.84
2022-08-25T07:02:59.617Z,61.32
2022-08-25T07:03:59.604Z,58.60
2022-08-25T07:04:59.587Z,57.76
2022-08-25T07:05:59.625Z,60.24
2022-08-25T07:06:59.567Z,56.79
2022-08-25T07:07:59.629Z,45.19
2022-08-25T07:08:59.550Z,50.72
2022-08-25T07:09:59.542Z,62.18
2022-08-25T07:10:59.536Z,63.04
2022-08-25T07:11:59.525Z,50.71
2022-08-25T07:12:59.531Z,48.40
2022-08-25T07:13:59.501Z,52.62
2022-08-25T07:15:17.229Z,47.61
2022-08-25T07:16:00.592Z,49.88
2022-08-25T07:16:59.501Z,50.64
2022-08-25T07:17:59.480Z,47.14
2022-08-25T07:19:00.209Z,49.53
2022-08-25T07:19:59.442Z,56.66
2022-08-25T07:20:59.434Z,50.53
2022-08-25T07:21:59.422Z,52.92
2022-08-25T07:22:59.599Z,54.56
2022-08-25T07:23:59.401Z,52.92
2022-08-25T07:24:59.400Z,49.61
2022-08-25T07:25:59.379Z,51.92
2022-08-25T07:26:59.375Z,52.35
2022-08-25T07:27:59.379Z,48.23
2022-08-25T07:28:59.592Z,52.12
2022-08-25T07:29:59.347Z,53.70
2022-08-25T07:30:59.352Z,51.23
2022-08-25T07:31:59.320Z,49.76
2022-08-25T07:33:00.768Z,48.56
2022-08-25T07:33:59.309Z,51.92
2022-08-25T07:34:59.303Z,50.63
2022-08-25T07:35:59.287Z,40.57
2022-08-25T07:36:59.278Z,46.32
2022-08-25T07:37:59.280Z,46.85
2022-08-25T07:38:59.267Z,52.85
2022-08-25T07:39:59.303Z,50.04
2022-08-25T07:40:59.248Z,49.40
2022-08-25T07:41:59.233Z,50.66
2022-08-25T07:42:59.240Z,53.91
2022-08-25T07:43:59.219Z,51.12
2022-08-25T07:44:59.209Z,47.89
2022-08-25T07:45:59.196Z,49.69
2022-08-25T07:46:59.225Z,52.13
2022-08-25T07:47:59.197Z,48.79
2022-08-25T07:48:59.170Z,44.75
2022-08-25T07:49:59.160Z,44.89
2022-08-25T07:50:59.154Z,51.93
2022-08-25T07:52:05.277Z,53.56
2022-08-25T07:53:00.231Z,44.07
2022-08-25T07:53:59.124Z,44.43
2022-08-25T07:54:59.131Z,45.64
2022-08-25T07:55:59.156Z,51.13
2022-08-25T07:56:59.128Z,51.58
2022-08-25T07:57:59.107Z,51.55
2022-08-25T07:58:59.081Z,51.13
2022-08-25T07:59:59.105Z,51.51
2022-08-25T08:00:59.063Z,43.57
2022-08-25T08:01:59.112Z,43.22
2022-08-25T08:02:59.152Z,52.00
2022-08-25T08:04:01.611Z,49.73
2022-08-25T08:04:59.023Z,53.15
2022-08-25T08:05:59.012Z,46.99
2022-08-25T08:06:59.007Z,47.99
2022-08-25T08:07:59.008Z,45.68
2022-08-25T08:08:59.071Z,47.05
2022-08-25T08:10:27.978Z,46.96
2022-08-25T08:11:04.744Z,50.08
2022-08-25T08:11:59.949Z,53.29
2022-08-25T08:12:58.971Z,47.35
2022-08-25T08:13:58.937Z,53.97
2022-08-25T08:14:58.988Z,43.73
2022-08-25T08:15:58.991Z,51.94
2022-08-25T08:16:58.905Z,48.98
2022-08-25T08:17:59.093Z,50.61
2022-08-25T08:18:58.884Z,55.46
2022-08-25T08:19:58.876Z,48.20
2022-08-25T08:20:58.870Z,48.64
2022-08-25T08:22:02.229Z,46.24
2022-08-25T08:22:59.081Z,37.12
2022-08-25T08:23:59.248Z,40.67
2022-08-25T08:24:58.827Z,48.81
2022-08-25T08:25:58.815Z,48.31
2022-08-25T08:26:59.311Z,47.35
2022-08-25T08:27:58.794Z,40.13
2022-08-25T08:28:59.105Z,46.00
2022-08-25T08:29:58.786Z,49.37
2022-08-25T08:30:58.810Z,44.51
2022-08-25T08:31:58.766Z,50.91
2022-08-25T08:33:13.198Z,54.39
2022-08-25T08:33:59.777Z,51.98
2022-08-25T08:34:58.737Z,51.84
2022-08-25T08:35:59.137Z,51.28
2022-08-25T08:36:58.728Z,51.92
2022-08-25T08:37:58.726Z,49.73
2022-08-25T08:38:58.721Z,45.76
2022-08-25T08:39:58.770Z,49.48
2022-08-25T08:40:58.681Z,52.77
2022-08-25T08:42:12.620Z,50.07
2022-08-25T08:42:59.793Z,47.03
2022-08-25T08:43:58.708Z,47.89
2022-08-25T08:45:02.022Z,48.08
2022-08-25T08:45:58.766Z,48.19
2022-08-25T08:46:58.640Z,46.33
2022-08-25T08:47:58.624Z,50.07
2022-08-25T08:48:58.624Z,49.97
2022-08-25T08:49:58.599Z,49.48
2022-08-25T08:50:58.593Z,50.38
2022-08-25T08:51:58.589Z,44.33
2022-08-25T08:52:58.579Z,45.90
2022-08-25T08:53:58.580Z,38.12
2022-08-25T08:54:58.557Z,45.36
2022-08-25T08:55:58.544Z,44.43
2022-08-25T08:56:58.537Z,43.38
2022-08-25T08:57:58.531Z,40.84
2022-08-25T08:59:00.569Z,40.77
2022-08-25T08:59:59.622Z,46.97
2022-08-25T09:00:58.509Z,41.29
2022-08-25T09:01:58.596Z,53.44
2022-08-25T09:02:58.568Z,47.11
2022-08-25T09:03:58.482Z,42.86
2022-08-25T09:04:58.466Z,47.93
2022-08-25T09:05:58.456Z,45.44
2022-08-25T09:06:58.452Z,47.32
2022-08-25T09:07:58.439Z,50.95
2022-08-25T09:08:58.546Z,47.41
2022-08-25T09:09:58.421Z,51.01
2022-08-25T09:10:58.417Z,54.20
2022-08-25T09:11:58.409Z,52.86
2022-08-25T09:12:58.663Z,49.50
2022-08-25T09:13:58.399Z,49.46
2022-08-25T09:14:58.376Z,51.47
2022-08-25T09:15:58.439Z,47.98
2022-08-25T09:16:58.464Z,52.39
2022-08-25T09:17:58.343Z,54.84
2022-08-25T09:18:58.351Z,52.25
2022-08-25T09:19:58.326Z,52.93
2022-08-25T09:20:58.321Z,51.47
2022-08-25T09:21:58.309Z,55.88
2022-08-25T09:22:58.298Z,53.77
2022-08-25T09:23:58.457Z,49.86
2022-08-25T09:24:58.280Z,47.81
2022-08-25T09:25:58.270Z,48.87
2022-08-25T09:26:58.263Z,52.35
2022-08-25T09:27:58.249Z,50.03
2022-08-25T09:28:58.258Z,49.93
2022-08-25T09:29:58.229Z,50.90
2022-08-25T09:30:58.280Z,54.84
2022-08-25T09:31:58.211Z,51.32
2022-08-25T09:32:58.218Z,46.34
2022-08-25T09:33:58.225Z,51.48
2022-08-25T09:34:58.200Z,54.13
2022-08-25T09:35:58.187Z,52.48
2022-08-25T09:36:58.186Z,45.12
2022-08-25T09:37:58.375Z,50.59
2022-08-25T09:38:58.153Z,50.31
2022-08-25T09:39:58.193Z,52.54
2022-08-25T09:40:58.140Z,52.04
2022-08-25T09:41:59.201Z,45.58
2022-08-25T09:42:58.578Z,51.72
2022-08-25T09:43:58.113Z,52.38
2022-08-25T09:44:58.116Z,51.86
2022-08-25T09:45:58.174Z,52.04
2022-08-25T09:46:58.084Z,55.32
2022-08-25T09:47:58.079Z,56.53
2022-08-25T09:48:58.083Z,55.22
2022-08-25T09:49:58.071Z,55.44
2022-08-25T09:50:58.054Z,54.29
2022-08-25T09:51:58.041Z,51.54
2022-08-25T09:52:58.034Z,51.55
2022-08-25T09:53:58.028Z,47.71
2022-08-25T09:54:58.018Z,49.91
2022-08-25T09:56:00.498Z,51.19
2022-08-25T09:56:57.992Z,48.46
2022-08-25T09:57:57.984Z,52.04
2022-08-25T09:59:02.415Z,48.08
2022-08-25T09:59:58.983Z,49.23
2022-08-25T10:00:57.992Z,50.10
2022-08-25T10:01:57.990Z,48.79
2022-08-25T10:02:57.934Z,52.70
2022-08-25T10:03:57.960Z,48.02
2022-08-25T10:04:57.955Z,54.18
2022-08-25T10:05:57.918Z,50.20
2022-08-25T10:06:57.900Z,47.58
2022-08-25T10:07:57.896Z,51.72
2022-08-25T10:08:57.951Z,54.36
2022-08-25T10:09:57.889Z,53.33
2022-08-25T10:10:57.875Z,52.59
2022-08-25T10:11:57.949Z,50.31
2022-08-25T10:12:57.858Z,50.82
2022-08-25T10:13:57.851Z,45.48
2022-08-25T10:14:57.842Z,54.30
2022-08-25T10:15:57.855Z,47.58
2022-08-25T10:16:57.823Z,52.25
2022-08-25T10:17:57.805Z,51.81
2022-08-25T10:18:57.818Z,50.01
2022-08-25T10:19:57.782Z,52.34
2022-08-25T10:20:57.782Z,49.44
2022-08-25T10:21:57.766Z,48.21
2022-08-25T10:22:57.767Z,51.33
2022-08-25T10:23:57.740Z,52.73
2022-08-25T10:24:57.750Z,44.52
2022-08-25T10:26:01.811Z,52.56
2022-08-25T10:26:58.736Z,45.51
2022-08-25T10:27:57.711Z,46.89
2022-08-25T10:28:57.727Z,46.76
2022-08-25T10:29:57.692Z,50.33
2022-08-25T10:30:57.762Z,51.03
2022-08-25T10:31:57.724Z,45.06
2022-08-25T10:32:57.666Z,49.67
2022-08-25T10:33:57.657Z,44.11
2022-08-25T10:34:57.721Z,47.71
2022-08-25T10:35:57.638Z,45.83
2022-08-25T10:36:57.668Z,47.92
2022-08-25T10:37:57.625Z,41.07
2022-08-25T10:38:57.630Z,45.90
2022-08-25T10:39:57.647Z,46.34
2022-08-25T10:40:57.593Z,49.25
2022-08-25T10:41:57.585Z,48.58
2022-08-25T10:42:57.583Z,48.60
2022-08-25T10:43:58.593Z,52.16
2022-08-25T10:44:57.561Z,52.31
2022-08-25T10:45:57.596Z,49.70
2022-08-25T10:46:57.546Z,50.14
2022-08-25T10:47:57.534Z,50.93
2022-08-25T10:48:57.540Z,48.15
2022-08-25T10:49:57.515Z,48.81
2022-08-25T10:50:57.503Z,54.25
2022-08-25T10:51:57.644Z,48.34
2022-08-25T10:52:57.488Z,53.87
2022-08-25T10:53:57.489Z,51.15
2022-08-25T10:54:57.468Z,49.38
2022-08-25T10:55:57.457Z,46.41
2022-08-25T10:57:01.517Z,43.57
2022-08-25T10:57:57.438Z,47.15
2022-08-25T10:58:57.506Z,50.70
2022-08-25T10:59:57.419Z,49.24
2022-08-25T11:00:57.593Z,47.63
2022-08-25T11:01:57.578Z,44.54
2022-08-25T11:02:57.440Z,44.07
2022-08-25T11:03:57.469Z,48.41
2022-08-25T11:04:57.421Z,50.90
2022-08-25T11:05:57.374Z,49.24
2022-08-25T11:06:57.362Z,42.63
2022-08-25T11:07:57.355Z,55.82
2022-08-25T11:08:57.369Z,46.28
2022-08-25T11:09:57.352Z,48.73
2022-08-25T11:10:57.320Z,51.85
2022-08-25T11:11:57.316Z,54.23
2022-08-25T11:12:57.307Z,50.93
2022-08-25T11:13:57.309Z,47.57
2022-08-25T11:14:57.286Z,49.74
2022-08-25T11:16:16.583Z,52.17
2022-08-25T11:16:58.305Z,48.37
2022-08-25T11:17:57.262Z,48.63
2022-08-25T11:18:57.269Z,50.12
2022-08-25T11:19:57.246Z,54.09
2022-08-25T11:20:57.231Z,46.98
2022-08-25T11:21:57.225Z,55.03
2022-08-25T11:22:57.212Z,49.98
2022-08-25T11:23:57.224Z,48.41
2022-08-25T11:24:57.266Z,50.36
2022-08-25T11:25:57.186Z,50.82
2022-08-25T11:26:57.175Z,49.10
2022-08-25T11:27:57.170Z,51.02
2022-08-25T11:28:57.177Z,45.75
2022-08-25T11:29:57.149Z,48.10
2022-08-25T11:30:57.231Z,48.03
2022-08-25T11:31:57.131Z,50.87
2022-08-25T11:32:57.177Z,48.68
2022-08-25T11:33:57.103Z,52.08
2022-08-25T11:34:57.117Z,52.35
2022-08-25T11:35:57.093Z,51.49
2022-08-25T11:36:57.082Z,51.32
2022-08-25T11:37:57.070Z,50.39
2022-08-25T11:38:57.069Z,50.33
2022-08-25T11:39:57.092Z,53.55
2022-08-25T11:40:57.040Z,52.38
2022-08-25T11:41:57.032Z,60.87
2022-08-25T11:42:57.024Z,51.19
2022-08-25T11:43:57.020Z,53.17
2022-08-25T11:44:57.025Z,51.35
2022-08-25T11:45:57.020Z,44.50
2022-08-25T11:46:56.994Z,47.87
2022-08-25T11:47:56.979Z,52.28
2022-08-25T11:48:56.970Z,50.97
2022-08-25T11:49:57.009Z,50.89
2022-08-25T11:50:56.951Z,64.21
2022-08-25T11:52:02.887Z,56.08
2022-08-25T11:52:57.938Z,51.84
2022-08-25T11:53:56.925Z,52.49
2022-08-25T11:54:56.927Z,51.39
2022-08-25T11:55:57.104Z,47.92
2022-08-25T11:56:56.894Z,49.26
2022-08-25T11:57:56.889Z,47.06
2022-08-25T11:58:56.882Z,45.29
2022-08-25T11:59:56.897Z,48.07
2022-08-25T12:00:56.861Z,43.89
2022-08-25T12:01:57.836Z,45.95
2022-08-25T12:03:01.293Z,51.16
2022-08-25T12:03:56.889Z,49.77
2022-08-25T12:04:56.888Z,50.87
2022-08-25T12:05:56.824Z,43.31
2022-08-25T12:06:56.904Z,48.34
2022-08-25T12:07:56.805Z,51.09
2022-08-25T12:08:57.668Z,51.10
2022-08-25T12:09:56.999Z,50.40
2022-08-25T12:10:56.942Z,51.47
2022-08-25T12:11:56.782Z,51.64
2022-08-25T12:12:56.752Z,46.59
2022-08-25T12:13:56.749Z,51.38
2022-08-25T12:14:56.749Z,52.01
2022-08-25T12:15:56.729Z,49.36
2022-08-25T12:16:56.812Z,47.21
2022-08-25T12:17:56.712Z,49.50
2022-08-25T12:18:56.701Z,52.83
2022-08-25T12:19:56.710Z,49.03
2022-08-25T12:20:56.679Z,50.07
2022-08-25T12:21:56.669Z,43.82
2022-08-25T12:22:56.746Z,43.22
2022-08-25T12:23:56.657Z,50.02
2022-08-25T12:24:56.660Z,45.26
2022-08-25T12:25:56.635Z,49.94
2022-08-25T12:26:56.625Z,49.79
2022-08-25T12:27:56.662Z,36.99
2022-08-25T12:28:56.609Z,46.67
2022-08-25T12:29:56.614Z,39.94
2022-08-25T12:30:56.646Z,46.85
2022-08-25T12:31:56.587Z,48.46
2022-08-25T12:32:56.573Z,37.77
2022-08-25T12:33:56.567Z,42.19
2022-08-25T12:34:56.572Z,46.88
2022-08-25T12:35:56.562Z,54.60
2022-08-25T12:36:56.539Z,51.66
2022-08-25T12:37:56.526Z,51.08
2022-08-25T12:38:56.661Z,46.04
2022-08-25T12:39:58.639Z,52.09
2022-08-25T12:40:56.519Z,50.67
2022-08-25T12:41:56.549Z,47.88
2022-08-25T12:42:56.484Z,50.32
2022-08-25T12:43:56.476Z,49.06
2022-08-25T12:44:56.471Z,50.16
2022-08-25T12:45:56.451Z,47.39
2022-08-25T12:46:56.447Z,51.69
2022-08-25T12:47:56.436Z,50.78
2022-08-25T12:48:56.431Z,47.68
2022-08-25T12:49:56.433Z,47.27
2022-08-25T12:50:56.407Z,47.88
2022-08-25T12:51:57.367Z,52.99